x

8454000 - Providence, Ri (foxr1) Weather Station

3:30 - Fri 27th May 2016 All times are EDT. -4 hours from GMT.

  • Wind
    14mph, 17mph gusts
  • Sea Temp 61°f
  • Aire Temp 70°f
  • Sea Pressure 1016.8mb
  • 8454000 - Providence, Ri
  • 8454000 - Providence, Ri

More Historic Weather Station data

Upgrade to MSW Pro to gain access to the past 30 days of data for over 8000 Wavebouys and Weather Stations around the globe.

Join Pro

Comparision Forecast

View Surf forecast
   
vie 05/27 3:30 14 17 mph 1016.8mb 61f 70f
3:24 14 18 mph 1016.8mb 61f 70f
3:18 14 20 mph 1016.8mb 61f 70f
3:12 16 18 mph 1016.8mb 61f 70f
3:06 15 18 mph 1017mb 61f 70f
3:00 13 17 mph 1017mb 61f 70f
2:54 14 21 mph 1017.1mb 61f 69f
2:48 15 20 mph 1017.1mb 61f 69f
2:42 15 20 mph 1017mb 61f 69f
2:36 14 18 mph 1017.1mb 61f 69f
2:30 11 17 mph 1017.1mb 60f 69f
2:24 14 17 mph 1017.2mb 60f 69f
2:18 15 18 mph 1017.1mb 60f 69f
2:12 16 20 mph 1017.1mb 60f 69f
2:06 18 21 mph 1017.2mb 60f 69f
2:00 17 21 mph 1017.2mb 60f 69f
1:54 15 20 mph 1017.2mb 60f 70f
1:48 14 17 mph 1017.3mb 60f 70f
1:42 16 20 mph 1017.4mb 60f 70f
1:36 11 15 mph 1017.5mb 60f 70f
1:30 14 17 mph 1017.6mb 60f 70f
1:24 13 16 mph 1017.7mb 60f 70f
1:18 11 16 mph 1017.7mb 60f 70f
1:12 13 17 mph 1017.8mb 60f 70f
1:06 16 18 mph 1017.8mb 60f 70f
1:00 16 18 mph 1017.9mb 60f 71f
12:54 11 14 mph 1018mb 60f 71f
12:48 13 15 mph 1017.9mb 60f 70f
12:42 11 15 mph 1017.9mb 60f 71f
12:36 14 16 mph 1018mb 60f 70f
12:30 10 16 mph 1018mb 60f 71f
12:24 11 16 mph 1018mb 60f 71f
12:18 14 16 mph 1018.1mb 60f 70f
12:12 13 16 mph 1018.2mb 60f 69f
12:06 14 16 mph 1018.2mb 60f 69f
12:00 13 15 mph 1018.2mb 59f 70f
11:54 11 14 mph 1018.3mb 59f 70f
11:48 11 14 mph 1018.3mb 59f 70f
11:42 11 15 mph 1018.2mb 59f 70f
11:36 11 14 mph 1018.2mb 59f 70f
11:30 14 15 mph 1018.2mb 59f 70f
11:24 13 15 mph 1018.3mb 59f 70f
11:18 11
mph
1018.3mb 59f 70f
11:12 9 11 mph 1018.3mb 59f 70f
11:06 9 11 mph 1018.3mb 59f 70f
11:00 10 11 mph 1018.4mb 59f 69f
10:54 9
mph
1018.5mb 59f 68f
10:48 7
mph
1018.7mb 59f 68f
10:42 6 8 mph 1018.8mb 59f 68f
10:36 7
mph
1018.7mb 59f 68f
10:30 8 9 mph 1018.7mb 59f 67f
10:24 7 9 mph 1018.5mb 59f 67f
10:18 7 9 mph 1018.5mb 59f 67f
10:12 8 11 mph 1018.5mb 59f 66f
10:06 9 13 mph 1018.5mb 59f 66f
10:00 7 11 mph 1018.5mb 59f 66f
9:54 9 11 mph 1018.5mb 59f 66f
9:48 8 10 mph 1018.5mb 59f 66f
9:42 7 9 mph 1018.5mb 59f 66f
9:36 7 8 mph 1018.5mb 59f 65f
9:30 6 7 mph 1018.5mb 60f 65f
9:24 6 7 mph 1018.5mb 60f 64f
9:18 7
mph
1018.6mb 60f 64f
9:12 7
mph
1018.5mb 60f 64f
9:06 6 7 mph 1018.6mb 60f 64f
9:00 6 7 mph 1018.7mb 60f 64f
8:54 5 6 mph 1018.6mb 60f 63f
8:48 6 7 mph 1018.5mb 61f 63f
8:42 6 7 mph 1018.4mb 61f 63f
8:36 7
mph
1018.5mb 61f 62f
8:30 6 8 mph 1018.5mb 61f 62f
8:24 6 8 mph 1018.5mb 61f 62f
8:18 6 8 mph 1018.6mb 61f 62f
8:12 8 9 mph 1018.6mb 61f 62f
8:06 7 9 mph 1018.5mb 61f 62f
8:00 8 9 mph 1018.5mb 61f 62f
7:54 7 9 mph 1018.5mb 61f 62f
7:48 7 9 mph 1018.6mb 61f 62f
7:42 9 10 mph 1018.5mb 61f 62f
7:36 9 11 mph 1018.6mb 61f 62f
7:30 7 9 mph 1018.6mb 61f 62f
7:24 6 9 mph 1018.6mb 61f 62f
7:18 6 9 mph 1018.7mb 61f 62f
7:12 6 7 mph 1018.8mb 61f 62f
7:06 6 7 mph 1018.9mb 61f 62f
7:00 7 8 mph 1018.8mb 61f 62f
6:54 7 9 mph 1018.8mb 61f 61f
6:48 7 9 mph 1018.7mb 61f 61f
6:42 7 8 mph 1018.7mb 61f 61f
6:36 7 9 mph 1018.7mb 61f 61f
6:30 6 8 mph 1018.6mb 62f 61f
6:24 5 6 mph 1018.7mb 62f 61f
6:18 6 7 mph 1018.6mb 62f 61f
6:12 8 9 mph 1018.7mb 62f 61f
6:06 7 9 mph 1018.6mb 62f 61f
6:00 8 10 mph 1018.6mb 62f 61f
5:54 8 10 mph 1018.5mb 62f 61f
5:48 8 10 mph 1018.6mb 62f 61f
5:42 8 10 mph 1018.5mb 62f 61f
5:36 7 8 mph 1018.4mb 62f 61f
5:24 9 13 mph 1018.5mb 62f 61f
5:18 8 13 mph 1018.4mb 62f 61f
5:12 9 10 mph 1018.4mb 62f 61f
5:06 7 10 mph 1018.3mb 62f 61f
5:00 8 10 mph 1018.4mb 62f 61f
4:54 8 10 mph 1018.3mb 62f 61f
4:48 7 10 mph 1018.4mb 62f 61f
4:42 9 11 mph 1018.4mb 62f 61f
4:36 8 10 mph 1018.4mb 62f 61f
4:30 7 11 mph 1018.5mb 62f 61f
4:24 10 13 mph 1018.4mb 62f 61f
4:18 7 9 mph 1018.4mb 62f 62f
4:12 7 10 mph 1018.2mb 62f 62f
4:06 6 8 mph 1018.2mb 61f 62f
4:00 6 9 mph 1018.2mb 61f 62f
3:54 6 8 mph 1018.2mb 61f 62f
3:48 5 6 mph 1018.2mb 61f 62f
3:42 5 6 mph 1018.1mb 61f 62f
3:36 5 6 mph 1018.1mb 61f 62f
3:30 5 7 mph 1018.2mb 61f 62f
3:24 6
mph
1018.2mb 61f 62f
3:18 5 6 mph 1018.1mb 61f 62f
3:12 5 7 mph 1018.1mb 61f 62f
3:06 6 7 mph 1018.2mb 61f 62f
3:00 6 8 mph 1018.2mb 61f 62f
2:54 6 7 mph 1018.3mb 61f 62f
2:48 6 7 mph 1018.3mb 60f 62f
2:42 6 7 mph 1018.2mb 60f 62f
2:36 6 8 mph 1018.2mb 60f 62f
2:30 7 8 mph 1018.2mb 60f 62f
2:24 6 8 mph 1018.2mb 60f 62f
2:18 6 7 mph 1018.1mb 60f 62f
2:12 7 9 mph 1018mb 60f 63f
2:06 6 8 mph 1018mb 60f 63f
2:00  -  mph 1018mb 60f 63f
1:54  -  mph 1017.9mb 60f 63f
1:48  -  mph 1017.9mb 60f 63f
1:42  -  mph 1017.8mb 60f 63f
1:36  -  mph 1017.9mb 60f 63f
1:30 7 10 mph 1017.8mb 60f 63f
1:24 7 9 mph 1017.7mb 60f 63f
1:18 8 10 mph 1017.7mb 60f 63f
1:12 8 10 mph 1017.7mb 60f 63f
1:06 8 9 mph 1017.7mb 59f 64f
1:00 8 9 mph 1017.7mb 59f 64f
12:54 8 10 mph 1017.7mb 59f 64f
12:48 7 10 mph 1017.8mb 59f 64f
12:42 8 9 mph 1017.9mb 59f 64f
12:36 7 8 mph 1017.9mb 59f 64f
12:30 7 8 mph 1018mb 59f 64f
12:24 6 9 mph 1018mb 59f 64f
12:18 8 10 mph 1017.9mb 59f 64f
12:12 8 9 mph 1017.9mb 59f 64f
12:06 7 8 mph 1018.1mb 59f 64f
12:00 7 10 mph 1018.1mb 59f 64f
jue 05/26 11:54 9 11 mph 1018mb 59f 65f
11:48 7 9 mph 1017.9mb 59f 65f
11:42  -  mph 1017.9mb 59f 65f
11:36  -  mph 1017.8mb 59f 65f
11:30 8 9 mph 1017.8mb 59f 65f
11:24 7 10 mph 1017.8mb 59f 65f
11:18  -  mph 1018mb 59f -
11:12  -  mph 1018.1mb 59f -
11:06  -  mph 1018.1mb 59f -
11:00  -  mph 1018.1mb 58f -
10:54  -  mph 1018mb 59f -
10:48 9 11 mph 1017.9mb - -
10:42 8 11 mph 1017.8mb - -
10:36 9 11 mph 1017.8mb - -
10:30 10 13 mph - - -
10:24 10 14 mph - - -
10:18  -  mph 1017.8mb 58f 66f
10:12  -  mph 1017.8mb 58f 66f
10:06  -  mph 1017.8mb 58f 66f
10:00  -  mph 1017.8mb - -
9:54  -  mph 1017.7mb - -
9:48  -  mph 1017.6mb - -
9:42  -  mph 1017.5mb - -
9:36  -  mph 1017.5mb - -
9:30 7 10 mph 1017.4mb - -
9:24 8 9 mph 1017.3mb - -
9:18 7 8 mph 1017.2mb - -
9:12  -  mph 1017.2mb 59f -
9:06  -  mph 1017.2mb 59f -
9:00  -  mph 1017.1mb - -
8:54  -  mph 1017mb - -
8:48  -  mph 1016.9mb - -
8:42  -  mph 1016.9mb - -
8:36  -  mph 1016.8mb - -
8:30 7 11 mph 1016.6mb 59f -
8:24 10 11 mph 1016.5mb 59f -
8:18  -  mph - 59f 70f
8:12  -  mph - 59f 70f
8:06  -  mph - 59f 70f
8:00  -  mph 1016.6mb - -
7:54  -  mph 1016.5mb - -
7:48  -  mph 1016.5mb - -
7:42  -  mph - 59f -
7:36  -  mph - 59f -
7:30 11 14 mph 1016.5mb 59f -
7:24 13 16 mph 1016.5mb 59f -
7:18  -  mph - 59f 72f
7:12  -  mph - 59f 72f
7:06  -  mph - 59f 73f
7:00 11 14 mph 1016.5mb - -
6:54 10 14 mph 1016.4mb - -
6:48 10 14 mph 1016.3mb - -
6:42 10 14 mph 1016.3mb - -
6:36 11 14 mph 1016.3mb - -
6:30 10 14 mph 1016.3mb 59f -
6:24 10 11 mph 1016.3mb 59f -
6:18 9 11 mph 1016.2mb 59f -
6:12  -  mph 1016.2mb 59f 76f
6:06  -  mph 1016.1mb 60f 75f
6:00 13 14 mph 1016.1mb 60f -
5:54 10 11 mph 1016.2mb 60f -
5:48  -  mph - 60f -
5:42  -  mph - 60f -
5:36  -  mph - 60f -
5:30 9 11 mph 1016.1mb 60f 76f
5:18 8 13 mph 1016.2mb 60f 75f
5:12 8 10 mph 1016.3mb 60f 75f
5:06 9 13 mph 1016.2mb 60f 75f
5:00 10 11 mph 1016.2mb 60f 75f
4:54 11 14 mph 1016.2mb 60f 75f
4:48 9 15 mph 1016.2mb 60f 75f
4:42 11 18 mph 1016.2mb 60f 75f
4:36 16 20 mph 1016.1mb 60f 76f
4:30 15 18 mph 1016.2mb 60f 77f
4:24 14 17 mph 1016.2mb 60f 78f
4:18 14 18 mph 1016.2mb 60f 78f
4:12 14 16 mph 1016.2mb 60f 78f
4:06 14 16 mph 1016.2mb 60f 78f
4:00 14 17 mph 1016.1mb 59f 77f
3:54 14 17 mph 1016.2mb 59f 78f
3:48 14 16 mph 1016.3mb 59f 77f
3:42 13 16 mph 1016.3mb 59f 77f
3:36 13 17 mph 1016.3mb 59f 77f
3:30 14 18 mph 1016.3mb 59f 77f
3:24 15 18 mph 1016.3mb 59f 77f
3:18 14 17 mph 1016.2mb 59f 77f
3:12 15 17 mph 1016.3mb 58f 77f
3:06 14 16 mph 1016.4mb 58f 77f
3:00 14 16 mph 1016.4mb 58f 76f
2:54 13 21 mph 1016.4mb 58f 76f
2:48 17 21 mph 1016.4mb 58f 75f
2:42 17 21 mph 1016.4mb 58f 75f
2:36 17 20 mph 1016.5mb 58f 76f
2:30 16 20 mph 1016.5mb 58f 76f
2:24 17 22 mph 1016.6mb 58f 77f
2:18 20 22 mph 1016.7mb 58f 77f
2:12 17 22 mph 1016.7mb 58f 76f
2:06 15 18 mph 1016.7mb 58f 77f
2:00 15 16 mph 1016.8mb 57f 78f
1:54 14 16 mph 1016.9mb 57f 78f
1:48 15 17 mph 1016.9mb 57f 77f
1:42  -  mph 1016.9mb 57f 77f
1:36  -  mph 1016.9mb 57f 76f
1:30 15 18 mph 1017mb 57f 78f
1:24 15 18 mph 1016.9mb 57f 79f
1:18 16 18 mph 1016.9mb 57f 80f
1:12 16 18 mph 1016.9mb 57f 80f
1:06 15 17 mph 1017mb 57f 80f
1:00 15 16 mph 1016.9mb 57f 80f
12:54 14 16 mph 1017mb 57f 80f
12:48 14 15 mph 1017.1mb 57f 80f
12:42 13 15 mph 1017.2mb 57f 80f
12:36 10 14 mph 1017.2mb 56f 80f
12:30 11 14 mph 1017.2mb 56f 80f
12:24 11 15 mph 1017.3mb 56f 79f
12:18 14 15 mph 1017.4mb 56f 79f
12:12 13 15 mph 1017.5mb 56f 80f
12:06 13 15 mph 1017.5mb 56f 79f
12:00 13 14 mph 1017.6mb 56f 80f
11:54 9 11 mph 1017.5mb 56f 79f
11:48 9 11 mph 1017.5mb 56f 79f
11:42 13 14 mph 1017.6mb 56f 80f
11:36 9 11 mph 1017.6mb 56f 80f
11:30 11 13 mph 1017.7mb 56f 78f
11:24 9 11 mph 1017.7mb 56f 78f
11:18 7 10 mph 1017.7mb 56f 77f
11:12 8 10 mph 1017.8mb 56f 78f
11:06 8 9 mph 1017.8mb 56f 78f
11:00 8
mph
1017.8mb 56f 75f
10:54 8 9 mph 1017.9mb 56f 73f
10:48 7
mph
1017.9mb 57f 76f
10:42 7 8 mph 1017.9mb 57f 78f
10:36 9
mph
1017.8mb 57f 78f
10:30 7 8 mph 1017.8mb 56f 74f
10:24 6
mph
1017.9mb 56f 72f
10:18 5
mph
1017.8mb 56f 72f
10:12 5
mph
1017.8mb 56f 72f
10:06 2 3 mph 1017.9mb 56f 76f
10:00 1 2 mph 1017.8mb 56f 78f
9:54  -  2 mph 1017.9mb 56f 75f
9:48 1 3 mph 1017.9mb 57f 74f
9:42 2 3 mph 1018mb 56f 73f
9:36 1 3 mph 1018.1mb 56f 73f
9:30 2 3 mph 1018.1mb 56f 74f
9:24 2 5 mph 1018.2mb 56f 72f
9:18 2 3 mph 1018.3mb 56f 73f
9:12 2 3 mph 1018.3mb 56f 72f
9:06 2 3 mph 1018.3mb 57f 71f
9:00 2 3 mph 1018.4mb 57f 71f
8:54 2 3 mph 1018.4mb 57f 71f
8:48 2 3 mph 1018.4mb 57f 72f
8:42 1 2 mph 1018.4mb 57f 72f
8:36 1 2 mph 1018.4mb 57f 71f
8:30 1 2 mph 1018.4mb 57f 70f
8:24 2 5 mph 1018.4mb 58f 68f
8:18 2 3 mph 1018.5mb 58f 68f
8:12  -  2 mph 1018.5mb 58f 68f
8:06 1 2 mph 1018.4mb 58f 68f
8:00 1 3 mph 1018.4mb 58f 68f
7:54 1 3 mph 1018.4mb 58f 68f
7:48 2 3 mph 1018.3mb 58f 67f
7:42 2 3 mph 1018.3mb 58f 67f
7:36 2
mph
1018.2mb 58f 67f
7:30 2 6 mph 1018.2mb 58f 67f
7:24 3 5 mph 1018.1mb 58f 66f
7:18 3
mph
1018.1mb 58f 66f
7:12 1 6 mph 1018mb 58f 66f
7:06 3 6 mph 1018.1mb 58f 67f
7:00 2 3 mph 1018mb 58f 69f
6:54  -  2 mph 1017.9mb 58f 69f
6:48  -  mph 1017.9mb 58f 69f
6:42  -  1 mph 1017.8mb 58f 70f
6:36  -  2 mph 1017.9mb 58f 69f
6:30 2 3 mph 1017.9mb 58f 67f
6:24 3 7 mph 1017.9mb 58f 66f
6:18 5 6 mph 1017.9mb 58f 66f
6:12 5 6 mph 1017.8mb 58f 66f
6:06 2 3 mph 1017.8mb 58f 66f
6:00 3 5 mph 1017.7mb 58f 65f
5:54 2 3 mph 1017.7mb 58f 64f
5:48 1 2 mph 1017.7mb 58f 64f
5:42 1 3 mph 1017.6mb 59f 64f
5:36  -  2 mph 1017.6mb 59f 64f
5:30 1 2 mph 1017.5mb 59f 64f
5:24  -  3 mph 1017.4mb 59f 65f
5:18 2
mph
1017.3mb 59f 65f
5:12  -  1 mph 1017.3mb 59f 65f
5:06 1 5 mph 1017.2mb 59f 66f
5:00 1 3 mph 1017.2mb 59f 66f
4:54 3 5 mph 1017.1mb 59f 66f
4:48 2 3 mph 1017.1mb 59f 65f
4:42 2 5 mph 1016.9mb 59f 65f
4:36 3 5 mph 1016.8mb 59f 65f
4:30 2 3 mph 1016.8mb 59f 65f
4:24 1 2 mph 1016.7mb 59f 64f
4:18  -  2 mph 1016.6mb 59f 65f
4:12  -  2 mph 1016.6mb 59f 65f
4:06 1
mph
1016.7mb 59f 64f
4:00  -  1 mph 1016.6mb 59f 64f
3:54 1
mph
1016.5mb 59f 65f
3:48 1 2 mph 1016.5mb 59f 65f
3:42 2
mph
1016.4mb 59f 65f
3:36 1 2 mph 1016.3mb 59f 66f
3:24 2 3 mph 1016.3mb 58f 65f
3:18 2 3 mph 1016.3mb 58f 65f
3:12 2
mph
1016.3mb 58f 65f
3:06 1 3 mph 1016.2mb 58f 66f
3:00 2 5 mph 1016.1mb 58f 69f
2:54 3 6 mph 1016.1mb 58f 69f
2:48 5 6 mph 1016mb 58f 69f
2:42 5 6 mph 1015.9mb 58f 69f
2:36 3 5 mph 1015.9mb 58f 68f
2:30 2 3 mph 1015.9mb 58f 67f
2:24 3 5 mph 1015.8mb 58f 67f
2:18 5 7 mph 1015.8mb 58f 67f
2:12 7
mph
1015.7mb 58f 67f
2:06 3
mph
1015.7mb 57f 68f
2:00 2 3 mph 1015.7mb 57f 70f
1:54 2 6 mph 1015.6mb 57f 71f
1:48 5 6 mph 1015.6mb 57f 71f
1:42 5 6 mph 1015.6mb 57f 70f
1:36 5 6 mph 1015.7mb 57f 70f
1:30 5
mph
1015.6mb 57f 70f
1:24 3 5 mph 1015.5mb 57f 70f
1:18 3 5 mph 1015.4mb 57f 71f
1:12 2 5 mph 1015.3mb 57f 72f
1:06 3 6 mph 1015.3mb 57f 72f
1:00 3 7 mph 1015.2mb 56f 72f
12:54 6 8 mph 1015.3mb 56f 73f
12:48 6 8 mph 1015.3mb 56f 73f
12:42 5 7 mph 1015.3mb 56f 74f
12:36 5 9 mph 1015.3mb 56f 74f
12:30 3 6 mph 1015.3mb 56f 75f
12:24 5 8 mph 1015.4mb 56f 75f
12:18 6 9 mph 1015.3mb 56f 75f
12:12 6 10 mph 1015.2mb 56f 75f
12:06 6 8 mph 1015.3mb 56f 75f
12:00 7 8 mph 1015.4mb 56f 75f
mié 05/25 11:54 6 11 mph 1015.4mb 56f 76f
11:48  -  mph 1015.4mb 56f 76f
11:42  -  mph 1015.3mb 56f 77f
11:36  -  mph 1015.4mb 56f 77f
11:30 8 10 mph 1015.3mb 56f 77f
11:24 8 10 mph 1015.4mb 56f 77f
11:18 8 10 mph 1015.4mb 56f 77f
11:12  -  mph 1015.4mb 56f 77f
11:06  -  mph 1015.5mb 56f 77f
11:00  -  mph - 56f 76f
10:54  -  mph - 56f 77f
10:48  -  mph - 56f 77f
10:42  -  mph - 56f 76f
10:36  -  mph - 56f 77f
10:30 6 8 mph 1015.4mb 56f -
10:24 6 8 mph 1015.4mb 56f -
10:18  -  mph 1015.4mb 56f 77f
10:12  -  mph 1015.3mb 56f 77f
10:06  -  mph 1015.4mb 56f 78f
10:00 7 9 mph 1015.3mb 56f -
9:54 6 8 mph 1015.2mb 56f -
9:48 7 10 mph 1015.2mb 56f -
9:42  -  mph 1015.2mb 56f -
9:36  -  mph 1015.2mb 56f -
9:30 6 7 mph 1015.1mb - -
9:24 6 8 mph 1015.1mb - -
9:18 7 11 mph 1015mb 56f -
9:12 6 8 mph 1015mb 56f -
9:06 5 10 mph 1014.9mb 56f -
9:00  -  mph 1014.8mb 56f -
8:54  -  mph 1014.8mb 56f -
8:48  -  mph 1014.8mb 56f -
8:42  -  mph 1014.7mb 56f -
8:36  -  mph 1014.7mb 56f -
8:30 6 13 mph 1014.7mb 56f -
8:24 6 8 mph 1014.7mb 56f -
8:18  -  mph 1014.6mb 56f 83f
8:12  -  mph 1014.5mb 56f 83f
8:06  -  mph 1014.4mb 56f 84f
8:00 6 9 mph 1014.3mb 56f -
7:54 7 8 mph 1014.2mb 56f -
7:48 7 9 mph - 56f -
7:42 5 7 mph - 56f -
7:36 3 10 mph - 56f -
7:30 6 10 mph 1014mb 56f -
7:24 6 10 mph 1014mb 56f -
7:18  -  mph 1014mb 56f 86f
7:12  -  mph 1013.9mb 56f 87f
7:06  -  mph 1014mb 56f 87f
7:00  -  mph 1013.9mb 56f -
6:54  -  mph 1013.9mb 56f -
6:48 9 11 mph 1013.9mb - -
6:42 6 10 mph 1013.8mb - -
6:36 7 10 mph 1013.7mb - -
6:30 8 13 mph 1013.7mb - -
6:24 11 15 mph 1013.7mb - -
6:18 11 16 mph 1013.6mb - -
6:12 8 14 mph 1013.5mb 56f 89f
6:06 11 17 mph 1013.5mb 56f 88f
6:00 8 16 mph 1013.5mb 56f -
5:54 8 17 mph 1013.4mb 56f -
5:48  -  mph 1013.4mb - -
5:42  -  mph 1013.5mb - -
5:36  -  mph 1013.6mb - -
5:30 10 18 mph 1013.6mb 57f 89f
5:24 13 18 mph 1013.4mb 57f 89f
5:18 14 21 mph 1013.4mb 57f 89f
5:12 9 15 mph 1013.4mb 57f 89f
5:06 9 15 mph 1013.3mb 57f 89f
5:00 10 14 mph 1013.4mb 57f 89f
4:54 16 20 mph 1013.5mb 57f 89f
4:48 13 21 mph 1013.4mb 57f 89f
4:42 14 21 mph 1013.5mb 57f 89f
4:36 13 22 mph 1013.5mb 57f 89f
4:30 13 24 mph 1013.5mb 57f 89f
4:24 11 22 mph 1013.4mb 57f 89f
4:18 15 24 mph 1013.4mb 57f 88f
4:12 15 24 mph 1013.4mb 57f 88f
4:06 11 16 mph 1013.4mb 57f 89f
4:00 9 16 mph 1013.3mb 57f 88f
3:54 5 10 mph 1013.4mb 57f 81f
3:48 9 11 mph 1013.4mb 57f 77f
3:42 3 13 mph 1013.5mb 57f 78f
3:36 9 15 mph 1013.4mb 56f 77f
3:30 13 15 mph 1013.5mb 56f 76f
3:24 13 18 mph 1013.4mb 56f 76f
3:18 14 15 mph 1013.5mb 56f 75f
3:12 13 15 mph 1013.5mb 56f 76f
3:06 8 15 mph 1013.6mb 56f 76f
3:00 15 21 mph 1013.6mb 56f 74f
2:54 16 18 mph 1013.8mb 56f 74f
2:48 13 15 mph 1013.8mb 56f 74f
2:42 11 16 mph 1013.9mb 56f 73f
2:36 15 18 mph 1013.9mb 56f 74f
2:24 14 20 mph 1014mb 56f 73f
2:18 16 20 mph 1014mb 56f 73f
2:12 15 18 mph 1014mb 56f 72f
2:06 15 17 mph 1014mb 56f 72f
2:00 15 20 mph 1014mb 56f 74f
1:54 16 20 mph 1013.9mb 56f 72f
1:48 16 20 mph 1013.9mb 56f 72f
1:42 15 17 mph 1013.9mb 56f 72f
1:36 14 16 mph 1014mb 55f 72f
1:30 13 15 mph 1014mb 55f 72f
1:24 14 17 mph 1014.1mb 55f 71f
1:18 13 16 mph 1014.2mb 55f 71f
1:12 14 15 mph 1014.3mb 55f 71f
1:06 11 14 mph 1014.4mb 55f 71f
1:00 11 14 mph 1014.4mb 55f 72f
12:54 10 13 mph 1014.5mb 55f 71f
12:48 11 13 mph 1014.6mb 55f 71f
12:42 10 13 mph 1014.6mb 55f 71f
12:36 8 11 mph 1014.6mb 55f 71f
12:30 9 11 mph 1014.7mb 55f 71f
12:24 9 13 mph 1014.7mb 55f 71f
12:18 11 13 mph 1014.8mb 55f 69f
12:12 10 13 mph 1014.9mb 55f 69f
12:06 9 11 mph 1015mb 55f 70f
12:00 10 13 mph 1014.9mb 55f 69f
11:54 10 11 mph 1015mb 55f 68f
11:48 9 11 mph 1015.1mb 55f 68f
11:42 11
mph
1015.1mb 55f 67f
11:36 10 11 mph 1015.2mb 55f 67f
11:30 8 11 mph 1015.3mb 55f 67f
11:24 10 11 mph 1015.3mb 55f 67f
11:18 10
mph
1015.2mb 55f 67f
11:06 8 9 mph 1015.2mb 55f 67f
11:00 9 10 mph 1015.2mb 55f 66f
10:54 8 10 mph 1015.2mb 55f 66f
10:48 8 10 mph 1015.2mb 55f 66f
10:42 9 10 mph 1015.2mb 55f 65f
10:36 9 10 mph 1015.3mb 55f 65f
10:30 9 10 mph 1015.3mb 55f 65f
10:24 8 9 mph 1015.4mb 55f 65f
10:18 8 10 mph 1015.4mb 55f 65f
10:12 8 11 mph 1015.4mb 55f 64f
10:00 8 9 mph 1015.4mb 55f 64f
9:48 8 10 mph 1015.4mb 55f 63f
9:42 8 9 mph 1015.3mb 55f 62f
9:36 8 9 mph 1015.3mb 55f 62f
9:30 7 9 mph 1015.2mb 55f 62f
9:18 8 10 mph 1015.2mb 55f 61f
9:12 9 10 mph 1015.1mb 55f 61f
9:06 9 10 mph 1015.2mb 55f 61f
9:00 8 10 mph 1015.2mb 55f 60f
8:54 9 10 mph 1015.2mb 55f 60f
8:48 8
mph
1015.3mb 55f 60f
8:42 7 8 mph 1015.4mb 55f 59f
8:36 7 8 mph 1015.4mb 55f 59f
8:30 7 8 mph 1015.4mb 55f 59f
8:24 6 8 mph 1015.5mb 55f 59f
8:18 7 9 mph 1015.6mb 55f 58f
8:12 7 8 mph 1015.6mb 55f 58f
8:06 6 7 mph 1015.7mb 55f 58f
8:00 5 7 mph 1015.7mb 55f 58f
7:54 6 7 mph 1015.6mb 55f 58f
7:48 6 7 mph 1015.6mb 55f 58f
7:42 6 8 mph 1015.7mb 55f 58f
7:36 6 7 mph 1015.6mb 55f 58f
7:30 6 8 mph 1015.6mb 55f 58f
7:24 7 8 mph 1015.5mb 55f 57f
7:18 6 8 mph 1015.4mb 55f 58f
7:12 6 7 mph 1015.4mb 55f 58f
7:06 5 7 mph 1015.5mb 55f 58f
7:00 3 6 mph 1015.5mb 55f 58f
6:54 2 5 mph 1015.6mb 55f 58f
6:48 3 6 mph 1015.6mb 55f 57f
6:42 3 5 mph 1015.5mb 55f 57f
6:36 2 5 mph 1015.6mb 55f 57f
6:30 5 6 mph 1015.3mb 55f 57f
6:24 5
mph
1015.3mb 55f 56f
6:18 3 5 mph 1015.2mb 55f 56f
6:12 3 5 mph 1015.1mb 55f 56f
6:06 5
mph
1015mb 55f 56f
5:54 3
mph
1015.1mb 55f 57f
5:48 2 3 mph 1015.1mb 55f 57f
5:42 2
mph
1015mb 56f 57f
5:36 1 2 mph 1015.1mb 56f 57f
5:30 1 3 mph 1015.2mb 56f 57f
5:24 2 3 mph 1015.2mb 56f 57f
5:18  -  2 mph 1015.1mb 56f 57f
5:12 2
mph
1015.1mb 56f 57f
5:06 1 3 mph 1015.1mb 56f 57f
5:00 3 5 mph 1015.2mb 56f 57f
4:54 3 6 mph 1015.4mb 56f 57f
4:48 5
mph
1015.3mb 56f 57f
4:42 1
mph
1015.2mb 56f 57f
4:36  -  1 mph 1015.1mb 56f 57f
4:30 2 3 mph 1015.2mb 56f 57f
4:24 2 6 mph 1015.2mb 56f 57f
4:18 3 6 mph 1015.2mb 56f 57f
4:12 5 6 mph 1015.3mb 56f 57f
4:06  -  2 mph 1015.2mb 56f 57f
4:00 3 5 mph 1015mb 56f 57f
3:54  -  1 mph 1014.9mb 56f 57f
3:48  -  3 mph 1015mb 56f 57f
3:42 2 6 mph 1015mb 56f 57f
3:36 2 5 mph 1015mb 56f 57f
3:30 2 3 mph 1014.8mb 56f 56f
3:24 2 3 mph 1014.8mb 56f 56f
3:18 2 3 mph 1014.8mb 56f 56f
3:12 5 7 mph 1014.8mb 56f 56f
3:06 6
mph
1014.5mb 56f 56f
3:00 3 5 mph 1014.6mb 56f 56f
2:54  -  3 mph 1014.6mb 56f 56f
2:48  -  2 mph 1014.7mb 56f 57f
2:42 2 3 mph 1014.6mb 55f 56f
2:36  -  2 mph 1014.5mb 55f 56f
2:30 2 5 mph 1014.4mb 55f 56f
2:24 1 3 mph 1014.6mb 55f 56f
2:18  -  3 mph 1014.7mb 55f 56f
2:12 2 5 mph 1014.5mb 55f 56f
2:06 2 5 mph 1014.5mb 55f 56f
2:00  -  2 mph 1014.4mb 55f 56f
1:54  -  5 mph 1014.2mb 55f 56f
1:48 3 6 mph 1013.9mb 55f 56f
1:42 5 6 mph 1014.1mb 55f 56f
1:36 5 6 mph 1014.1mb 55f 56f
1:30 5 6 mph 1014.1mb 54f 56f
1:24 6
mph
1014.1mb 54f 56f
1:18 6
mph
1014.2mb 54f 56f
1:12 2 6 mph 1014.2mb 54f 56f
1:06 6
mph
1014.3mb 54f 56f
1:00 3 5 mph 1014.3mb 54f 56f
12:54 5
mph
1014.3mb 54f 56f
12:48 1 3 mph 1014.4mb 54f 56f
12:42 2 5 mph 1014.4mb 54f 56f
12:36 2 5 mph 1014.4mb 54f 56f
12:30 3 5 mph 1014.3mb 54f 56f
12:24 3 6 mph 1014.3mb 54f 56f
12:18 6
mph
1014.3mb 54f 56f
12:12 5 7 mph 1014.4mb 54f 56f
12:06 6 7 mph 1014.3mb 54f 56f
12:00 7 9 mph 1014.3mb 54f 56f
mar 05/24 11:54 7 9 mph 1014.2mb 54f 56f
11:48  -  mph 1014.2mb 54f 56f
11:42  -  mph 1014.3mb 54f 56f
11:36  -  mph 1014.2mb 54f 56f
11:30 8 11 mph 1014.1mb 54f 56f
11:24 8 11 mph 1014.1mb 54f 56f
11:18  -  mph 1014.1mb 55f 56f
11:12  -  mph 1014mb 55f 56f
11:06  -  mph 1014.1mb 55f 56f
11:00 6 8 mph 1014.1mb 55f 56f
10:54 6 8 mph 1014.2mb 55f 56f
10:48 7 9 mph - - -
10:42 9 10 mph - - -
10:36 8 13 mph - - -
10:30 9 11 mph - 55f -
10:24 6 13 mph - 55f -
10:18 8 11 mph - 55f -
10:12  -  mph 1014mb 55f 56f
10:06  -  mph 1014mb 55f 56f
9:54  -  mph 1013.8mb 55f 56f
9:48  -  mph 1013.7mb - -
9:42  -  mph 1013.7mb - -
9:36  -  mph 1013.6mb - -
9:30 9 11 mph 1013.6mb 55f -
9:24 6 8 mph 1013.7mb 55f -
9:18 6 8 mph 1013.7mb 55f -
9:12  -  mph 1013.6mb 55f 56f
9:06  -  mph 1013.6mb 55f 56f
8:54  -  mph 1013.5mb 55f -
8:48  -  mph 1013.4mb - -
8:42  -  mph 1013.4mb - -
8:36  -  mph 1013.2mb - -
8:30 6 9 mph 1013.2mb - 56f
8:24 7 9 mph 1013.1mb - 56f
8:18 6 7 mph 1013mb - 56f
8:12  -  mph 1013mb 55f 56f
8:06  -  mph 1012.9mb 55f 56f
8:00  -  mph 1012.9mb - 56f
7:54  -  mph 1012.9mb - 56f
7:48 8 10 mph - 55f -
7:42 8 10 mph - 55f -
7:36 8 10 mph - 55f -
7:30  -  mph 1012.8mb 55f -
7:18  -  mph 1012.9mb 55f -
7:12  -  mph 1012.9mb 55f 56f
7:06  -  mph 1012.8mb 55f 56f
7:00  -  mph 1012.8mb 55f 56f
6:54  -  mph 1012.7mb 55f 56f
6:48  -  mph 1012.6mb 55f 56f
6:42  -  mph 1012.5mb 55f 56f
6:36  -  mph 1012.5mb 55f 56f
6:30  -  mph 1012.5mb 55f 57f
6:24 9 11 mph 1012.4mb 56f -
6:18 9 11 mph 1012.3mb 56f -
6:12 11 13 mph 1012.2mb 56f -
6:06 10 14 mph 1012.2mb 56f -
6:00  -  mph - - 57f
5:54  -  mph - - 57f
5:48  -  mph 1012mb 56f 57f
5:42  -  mph 1012mb 56f 58f
5:36  -  mph 1012mb 56f 58f
5:30 13 16 mph 1012mb 56f 58f
5:24 9 15 mph 1012mb 56f 58f
5:18 11 14 mph 1012mb 56f 58f
5:12 9 13 mph 1011.9mb 56f 58f
5:06 9 14 mph 1011.9mb 56f 58f
4:54 10 14 mph 1012mb 57f 58f
4:48 9 14 mph 1011.9mb 57f 58f
4:42 10 15 mph 1011.9mb 57f 58f
4:36 10 16 mph 1011.8mb 57f 58f
4:30 11 18 mph 1011.7mb 57f 58f
4:24 14 17 mph 1011.6mb 57f 58f
4:18 13 17 mph 1011.5mb 57f 58f
4:12 14 16 mph 1011.5mb 57f 57f
4:06 13 16 mph 1011.5mb 57f 58f
4:00 15 18 mph 1011.5mb 57f 58f
3:54 11 15 mph 1011.5mb 57f 58f
3:48 11 14 mph 1011.5mb 57f 58f
3:42 10 14 mph 1011.6mb 57f 58f
3:36 10 14 mph 1011.7mb 57f 58f
3:30 11 15 mph 1011.6mb 57f 58f
3:24 11 14 mph 1011.6mb 57f 58f
3:18 9 14 mph 1011.6mb 57f 58f
3:12 13 15 mph 1011.6mb 57f 58f
3:06 13 15 mph 1011.6mb 57f 58f
3:00 9 14 mph 1011.6mb 57f 58f
2:54 9 13 mph 1011.6mb 57f 58f
2:48 11 14 mph 1011.6mb 57f 58f
2:42 10 14 mph 1011.6mb 57f 58f
2:36 9 15 mph 1011.6mb 57f 58f
2:30 11 14 mph 1011.5mb 57f 58f
2:24 13 15 mph 1011.5mb 57f 58f
2:18 10 16 mph 1011.5mb 56f 58f
2:12 11 15 mph 1011.4mb 56f 58f
2:06 14 17 mph 1011.3mb 56f 58f
2:00 11 14 mph 1011.2mb 56f 57f
1:54 14 16 mph 1011.2mb 56f 57f
1:48 13 16 mph 1011.3mb 56f 57f
1:42 11 15 mph 1011.3mb 56f 57f
1:36 13 18 mph 1011.3mb 56f 57f
1:30 14 18 mph 1011.3mb 56f 57f
1:24 14 18 mph 1011.3mb 56f 57f
1:18 14 17 mph 1011.3mb 55f 57f
1:12 14 17 mph 1011.5mb 55f 57f
1:06 14 17 mph 1011.5mb 55f 57f
1:00 14 17 mph 1011.5mb 55f 57f
12:54 13 17 mph 1011.6mb 55f 57f
12:48 13 16 mph 1011.5mb 55f 57f
12:42 14 17 mph 1011.6mb 55f 57f
12:36 14 16 mph 1011.6mb 55f 57f
12:30 14 16 mph 1011.6mb 55f 57f
12:24 14 16 mph 1011.7mb 55f 57f
12:18 13 17 mph 1011.7mb 55f 57f
12:12 14 18 mph 1011.6mb 55f 57f
12:06 13 16 mph 1011.6mb 55f 57f
12:00 14 18 mph 1011.5mb 55f 57f
11:54 11 17 mph 1011.4mb 55f 57f
11:48 14 18 mph 1011.4mb 55f 57f
11:42 14 17 mph 1011.4mb 55f 57f
11:36 15 18 mph 1011.3mb 55f 57f
11:30 13 20 mph 1011.3mb 55f 57f
11:24 17 20 mph 1011.2mb 55f 57f
11:18 14 20 mph 1011.2mb 55f 57f
11:12 14 17 mph 1011.3mb 55f 57f
11:06 15 21 mph 1011.2mb 55f 57f
11:00 15 18 mph 1011.2mb 55f 57f
10:54 11 18 mph 1011.2mb 55f 57f
10:48 14 18 mph 1011.2mb 55f 57f
10:42 13 22 mph 1011.1mb 55f 57f
10:36 13 17 mph 1011.1mb 55f 57f
10:30 11 16 mph 1011.2mb 55f 57f
10:24 11 15 mph 1011.1mb 55f 57f
10:18 10 18 mph 1011.1mb 55f 56f
10:12 14 21 mph 1011mb 55f 56f
10:06 14 18 mph 1010.8mb 55f 56f
10:00 9 15 mph 1010.9mb 56f 56f
9:54 11 21 mph 1011mb 56f 56f
9:48 15 18 mph - 56f 56f
9:42 10 16 mph - 56f 56f
9:36 10 18 mph - 56f 55f
9:30 11 15 mph 1011.1mb 56f 55f
9:24 11 18 mph 1011.1mb 56f 55f
9:18 11 16 mph 1011mb 56f 55f
9:12 14 18 mph 1010.9mb 56f 55f
9:06 13 18 mph 1011mb 56f 55f
9:00 17 20 mph 1011mb 56f 55f
8:54 17 22 mph 1011.1mb 56f 55f
8:48 15 23 mph 1011mb 56f 55f
8:42 11 20 mph 1011.1mb 56f 55f
8:36 14 17 mph 1011mb 56f 55f
8:30 13 17 mph 1011.1mb 56f 55f
8:24 15 18 mph 1011.1mb 56f 55f
8:18 13 16 mph 1011.1mb 56f 55f
8:12 14 17 mph 1011.2mb 56f 55f
8:06 15 21 mph 1011.1mb 56f 55f
8:00 14 18 mph 1011mb 56f 55f
7:54 13 17 mph 1011mb 56f 55f
7:48 14 17 mph 1010.9mb 56f 55f
7:42 15 18 mph 1010.8mb 56f 55f
7:36 14 18 mph 1010.8mb 56f 55f
7:30 14 18 mph 1010.6mb 56f 56f
7:24 9 15 mph 1010.6mb 56f 56f
7:18 13 15 mph 1010.7mb 56f 55f
7:12 8 16 mph 1010.9mb 56f 56f
7:06 10 14 mph 1010.9mb 56f 55f
7:00 11 18 mph 1010.9mb 56f 55f
6:54 17 22 mph 1010.8mb 56f 55f
6:48 15 20 mph 1010.8mb 56f 55f
6:42 10 14 mph 1010.8mb 56f 56f
6:36 11 16 mph 1010.7mb 56f 56f
6:30 13 18 mph 1010.6mb 56f 56f
6:24 11 16 mph 1010.7mb 56f 56f
6:18 11 16 mph 1010.8mb 56f 55f
6:12 14 21 mph 1010.8mb 56f 56f
6:06 13 17 mph 1010.9mb 56f 56f
6:00 8 11 mph 1011.1mb 56f 56f
5:54 11 16 mph 1011.2mb 57f 56f
5:48 15 20 mph 1011mb 57f 55f
5:42 10 18 mph 1011mb 57f 55f
5:36 9 11 mph 1011.2mb 57f 55f
5:30 9 13 mph 1011.2mb 57f 56f
5:24 10 18 mph 1011mb 57f 56f
5:18 13 16 mph 1010.8mb 57f 56f
5:12 13 16 mph 1010.8mb 57f 56f
5:06 11 17 mph 1010.8mb 57f 56f
5:00 13 16 mph 1010.7mb 57f 56f
4:54 8 13 mph 1010.8mb 57f 56f
4:48 10 15 mph 1010.7mb 58f 56f
4:42 10 14 mph 1010.7mb 58f 56f
4:36 13 16 mph 1010.5mb 58f 56f
4:30 13 17 mph 1010.4mb 58f 56f
4:24 14 17 mph 1010.4mb 58f 56f
4:18 13 20 mph 1010.4mb 58f 56f
4:12 16 21 mph 1010.2mb 58f 57f
4:06 17 22 mph 1010.1mb 58f 57f
4:00 16 21 mph 1010.3mb 58f 57f
3:54 15 22 mph 1010.3mb 58f 57f
3:48 11 17 mph 1010.6mb 58f 58f
3:42 11 16 mph 1010.3mb 58f 58f
3:36 14 17 mph 1010.4mb 58f 58f
3:30 10 15 mph 1010.3mb 58f 58f
3:24 9 13 mph 1010.5mb 58f 59f
3:18 6 10 mph 1010.6mb 58f 59f
3:12 11 16 mph 1010.4mb 58f 60f
3:06 14 17 mph 1010mb 58f 60f
3:00 9 14 mph 1010.4mb 58f 60f
2:54 7 9 mph 1010.5mb 58f 61f
2:48 6 9 mph 1010.5mb 58f 61f
2:42 7 10 mph 1010.6mb 58f 62f
2:36 7 9 mph 1010.6mb 58f 62f
2:30 9 11 mph 1010.6mb 58f 62f
2:24 7 13 mph 1010.5mb 57f 62f
2:18 9 13 mph 1010.5mb 57f 62f
2:12 10 11 mph 1010.5mb 57f 62f
2:06 7 11 mph 1010.6mb 57f 62f
2:00 9 14 mph 1010.5mb 57f 62f
1:54 8 13 mph 1010.7mb 57f 62f
1:48 7 10 mph 1010.5mb 56f 62f
1:42  -  mph 1010.7mb 56f 62f
1:36  -  mph 1010.9mb 56f 62f
1:30 7 13 mph 1010.8mb 56f 63f
1:24 10 17 mph 1010.6mb 56f 63f
1:18 13 18 mph 1010.5mb 56f 63f
1:12 10 15 mph 1010.7mb 56f 63f
1:06 11 15 mph 1010.9mb 56f 63f
1:00 8 13 mph 1011.1mb 56f 63f
12:54 9 11 mph 1011.1mb 56f 63f
12:48 8 15 mph 1011.2mb 56f 63f
12:42 8 14 mph 1011.2mb 55f 64f
12:36 8 14 mph 1011.2mb 55f 64f
12:30 9 11 mph 1011.3mb 55f 64f
12:24 7 10 mph 1011.5mb 55f 64f
12:18 7 10 mph 1011.6mb 55f 64f
12:12 6 8 mph 1011.6mb 55f 63f
12:06 6 8 mph 1011.6mb 55f 63f
12:00 6 8 mph 1011.6mb 55f 63f
lun 05/23 11:54 6 8 mph 1011.6mb 55f 63f
11:48 5 8 mph 1011.6mb 55f 64f
11:42 6
mph
1011.7mb 55f 64f
11:36 5 6 mph 1011.8mb 55f 64f
11:30 3 7 mph 1011.8mb 55f 64f
11:24 6
mph
1011.8mb 55f 64f
11:18 2 6 mph 1011.9mb 55f 64f
11:12  -  mph 1011.9mb 55f 64f
11:06  -  mph 1011.9mb 55f 64f
11:00  -  mph - 55f -
10:54  -  mph - 55f -
10:48  -  mph 1011.6mb 55f -
10:42  -  mph 1011.6mb 55f -
10:36  -  mph 1011.6mb 55f -
10:30 6
mph
1011.6mb 55f 64f
10:24 5 7 mph 1011.6mb 55f 64f
10:18 6 8 mph 1011.7mb 56f 65f
10:12 7 9 mph 1011.7mb 56f -
10:06 6 7 mph 1011.7mb 56f -
10:00 6 8 mph 1011.7mb 56f 65f
9:54 3 5 mph 1011.5mb 56f 65f
9:48 3
mph
- 56f -
9:42 3
mph
- 56f -
9:36  -  2 mph - 56f -
9:30  -  mph - 56f -
9:24  -  mph - 56f -
9:18  -  mph - 56f -
9:12  -  mph - 56f -
9:06  -  mph - 56f -
9:00  -  mph - 56f 65f
8:54  -  mph - 56f 65f
8:48 6 10 mph 1010.7mb - -
8:42 7 9 mph 1010.8mb - -
8:36 6 7 mph 1010.8mb - -
8:30  -  mph 1010.7mb 56f -
8:24  -  mph 1010.7mb 56f -